Tuxedo Park, New York
Current Conditions -  °F | °C
As of 12:45 PM on Friday 28 Nov 2014 (Local Time) from KSWF Reporting Station
Broken Clouds Broken Clouds  
Wind Chill: 21°   Ceiling: 4000
Heat Index: 32°   Visibility: 20mi
Dew Point: 21°   Wind: 17mph
Humidity: 64%   Direction: 290°WNW
Pressure: 30.14"   Gusts: NA
Location:  41.19°N, 74.18°W
Report Text: KSWF 281745Z 29015KT 20SM BKN040 00/M06 A3014
Loading
Personal Weather Stations






























Interactive Weather Map New forecast layout! Learn more

10-Day Weather Forecast

Advertisements
Track Severe Weather on mobile